Time;durP1;ratioP1;P1;durP2;ratioP2;P2;SDS_P1;SDS_P2;PMS_P1;PMS_P2;Temp;Humidity;BMP_temperature;BMP_pressure;BME280_temperature;BME280_humidity;BME280_pressure;Samples;Min_cycle;Max_cycle;Signal;HPM_P1;HPM_P2
2023/06/15 00:00:17;;;;;;;22.00;13.95;;;;;;;-142.57;100.00;115900.28;4993286;28;20118;-81
2023/06/15 00:02:42;;;;;;;22.90;13.95;;;;;;;-142.57;100.00;115900.28;4994064;28;20030;-81
2023/06/15 00:05:09;;;;;;;20.63;14.43;;;;;;;-142.57;100.00;115900.28;4994214;28;20026;-82
2023/06/15 00:07:35;;;;;;;29.77;16.05;;;;;;;-142.57;100.00;115900.28;4993432;28;20042;-82
2023/06/15 00:10:01;;;;;;;23.30;14.02;;;;;;;-142.57;100.00;115900.28;4992978;28;20042;-84
2023/06/15 00:12:26;;;;;;;24.27;14.20;;;;;;;-142.57;100.00;115900.28;4993258;28;20049;-81
2023/06/15 00:14:52;;;;;;;23.13;14.02;;;;;;;-142.57;100.00;115900.28;4993391;28;20045;-79
2023/06/15 00:17:17;;;;;;;23.75;15.50;;;;;;;-142.57;100.00;115900.28;4992864;28;20026;-80
2023/06/15 00:19:46;;;;;;;17.75;14.05;;;;;;;-142.57;100.00;115900.28;4992981;28;20038;-81
2023/06/15 00:22:15;;;;;;;16.85;13.15;;;;;;;-142.57;100.00;115900.28;4993698;28;20089;-80
2023/06/15 00:24:43;;;;;;;18.02;12.98;;;;;;;-142.57;100.00;115900.28;4994144;28;20400;-83
2023/06/15 00:27:09;;;;;;;16.73;11.93;;;;;;;-142.57;100.00;115900.28;4993842;28;20038;-80
2023/06/15 00:29:35;;;;;;;18.63;12.60;;;;;;;-142.57;100.00;115900.28;4976336;28;20026;-80
2023/06/15 00:32:00;;;;;;;19.85;13.15;;;;;;;-142.57;100.00;115900.28;4993693;28;20034;-81
2023/06/15 00:34:26;;;;;;;23.00;13.05;;;;;;;-142.57;100.00;115900.28;4976297;28;20039;-80
2023/06/15 00:36:51;;;;;;;17.30;13.07;;;;;;;-142.57;100.00;115900.28;4993415;28;20038;-80
2023/06/15 00:39:18;;;;;;;19.15;12.68;;;;;;;-142.57;100.00;115900.28;4993738;28;20049;-81
2023/06/15 00:41:44;;;;;;;20.52;15.45;;;;;;;-142.57;100.00;115900.28;4976161;28;20023;-80
2023/06/15 00:44:10;;;;;;;26.15;14.35;;;;;;;-142.57;100.00;115900.28;4976230;28;20077;-81
2023/06/15 00:46:38;;;;;;;22.73;15.15;;;;;;;-142.57;100.00;115900.28;4993865;28;20045;-80
2023/06/15 00:49:04;;;;;;;25.67;16.33;;;;;;;-142.57;100.00;115900.28;4974242;28;20133;-79
2023/06/15 00:51:30;;;;;;;24.83;15.50;;;;;;;-142.57;100.00;115900.28;4993163;28;20480;-79
2023/06/15 00:53:58;;;;;;;27.08;16.75;;;;;;;-142.57;100.00;115900.28;4979778;28;20107;-80
2023/06/15 00:56:23;;;;;;;31.98;20.10;;;;;;;-142.57;100.00;115900.28;4956999;28;20078;-79
2023/06/15 00:58:49;;;;;;;39.33;21.25;;;;;;;-142.57;100.00;115900.28;4974703;28;20074;-79
2023/06/15 01:01:15;;;;;;;31.10;21.27;;;;;;;-142.57;100.00;115900.28;4957374;28;20109;-78
2023/06/15 01:03:44;;;;;;;30.83;22.33;;;;;;;-142.57;100.00;115900.28;4965899;28;20057;-80
2023/06/15 01:06:16;;;;;;;36.33;21.50;;;;;;;-142.57;100.00;115900.28;4977974;28;20452;-78
2023/06/15 01:08:47;;;;;;;36.38;22.77;;;;;;;-142.57;100.00;115900.28;4978366;28;20042;-81
2023/06/15 01:11:14;;;;;;;36.25;23.63;;;;;;;-142.57;100.00;115900.28;4960398;28;20095;-78
2023/06/15 01:13:44;;;;;;;33.78;24.60;;;;;;;-142.57;100.00;115900.28;4978281;28;20118;-80
2023/06/15 01:16:18;;;;;;;35.25;25.73;;;;;;;-142.57;100.00;115900.28;4996105;28;20053;-80
2023/06/15 01:18:47;;;;;;;36.63;25.65;;;;;;;-142.57;100.00;115900.28;4997770;28;20035;-80
2023/06/15 01:21:13;;;;;;;43.30;25.33;;;;;;;-142.57;100.00;115900.28;4996551;28;20081;-79
2023/06/15 01:23:59;;;;;;;31.95;23.20;;;;;;;-142.57;100.00;115900.28;4978727;28;20069;-78
2023/06/15 01:26:28;;;;;;;35.17;23.95;;;;;;;-142.57;100.00;115900.28;4979037;28;20039;-81
2023/06/15 01:28:55;;;;;;;33.25;24.27;;;;;;;-142.57;100.00;115900.28;4976646;28;20137;-78
2023/06/15 01:31:22;;;;;;;31.15;22.42;;;;;;;-142.57;100.00;115900.28;4976457;28;20039;-80
2023/06/15 01:33:50;;;;;;;34.28;23.77;;;;;;;-142.57;100.00;115900.28;4981115;28;20380;-79
2023/06/15 01:36:17;;;;;;;32.78;22.65;;;;;;;-142.57;100.00;115900.28;4974176;28;20034;-79
2023/06/15 01:38:52;;;;;;;30.08;21.95;;;;;;;-142.57;100.00;115900.28;4995471;28;20042;-79
2023/06/15 01:41:19;;;;;;;32.90;22.08;;;;;;;-142.57;100.00;115900.28;4995619;28;20121;-80
2023/06/15 01:43:45;;;;;;;31.75;21.52;;;;;;;-142.57;100.00;115900.28;4977999;28;20140;-76
2023/06/15 01:46:11;;;;;;;31.40;20.33;;;;;;;-142.57;100.00;115900.28;4995122;28;20030;-79
2023/06/15 01:48:37;;;;;;;31.05;20.33;;;;;;;-142.57;100.00;115900.28;4976211;28;20072;-84
2023/06/15 01:51:02;;;;;;;29.35;20.98;;;;;;;-142.57;100.00;115900.28;4976113;28;20046;-79
2023/06/15 01:53:29;;;;;;;33.75;22.60;;;;;;;-142.57;100.00;115900.28;4976387;28;20034;-80
2023/06/15 01:55:55;;;;;;;32.33;21.40;;;;;;;-142.57;100.00;115900.28;4991683;28;20105;-78
2023/06/15 01:58:21;;;;;;;29.20;21.00;;;;;;;-142.57;100.00;115900.28;4977655;28;20117;-79
2023/06/15 02:00:46;;;;;;;33.33;20.55;;;;;;;-142.57;100.00;115900.28;4971836;28;20465;-80
2023/06/15 02:03:12;;;;;;;34.65;22.77;;;;;;;-142.57;100.00;115900.28;4976088;28;20034;-79
2023/06/15 02:05:40;;;;;;;32.70;21.50;;;;;;;-142.57;100.00;115900.28;4976092;28;20500;-80
2023/06/15 02:08:10;;;;;;;28.63;21.85;;;;;;;-142.57;100.00;115900.28;4982097;28;20030;-80
2023/06/15 02:10:37;;;;;;;32.58;21.00;;;;;;;-142.57;100.00;115900.28;4977905;28;20041;-78
2023/06/15 02:13:03;;;;;;;32.50;21.67;;;;;;;-142.57;100.00;115900.28;4977695;28;20058;-79
2023/06/15 02:15:29;;;;;;;35.22;19.92;;;;;;;-142.57;100.00;115900.28;4976751;28;20045;-78
2023/06/15 02:18:00;;;;;;;35.00;22.20;;;;;;;-142.57;100.00;115900.28;4993516;28;20379;-79
2023/06/15 02:20:27;;;;;;;37.20;22.27;;;;;;;-142.57;100.00;115900.28;4977651;28;20101;-81
2023/06/15 02:22:59;;;;;;;29.63;21.10;;;;;;;-142.57;100.00;115900.28;4995074;28;20121;-78
2023/06/15 02:25:24;;;;;;;37.35;22.38;;;;;;;-142.57;100.00;115900.28;4977507;28;20117;-78
2023/06/15 02:27:51;;;;;;;35.03;22.77;;;;;;;-142.57;100.00;115900.28;4994561;28;20157;-76
2023/06/15 02:30:17;;;;;;;36.80;23.13;;;;;;;-142.57;100.00;115900.28;4994035;28;20425;-77
2023/06/15 02:32:43;;;;;;;36.20;23.95;;;;;;;-142.57;100.00;115900.28;4995104;28;20096;-79
2023/06/15 02:35:12;;;;;;;33.00;23.33;;;;;;;-142.57;100.00;115900.28;4977325;28;20396;-79
2023/06/15 02:37:39;;;;;;;30.48;22.60;;;;;;;-142.57;100.00;115900.28;4976592;28;20058;-81
2023/06/15 02:40:08;;;;;;;30.85;22.58;;;;;;;-142.57;100.00;115900.28;4977355;28;20038;-79
2023/06/15 02:42:35;;;;;;;35.25;22.25;;;;;;;-142.57;100.00;115900.28;4960260;28;20479;-81
2023/06/15 02:45:02;;;;;;;33.25;22.85;;;;;;;-142.57;100.00;115900.28;4975701;28;20038;-77
2023/06/15 02:47:29;;;;;;;28.95;21.52;;;;;;;-142.57;100.00;115900.28;4976755;28;20035;-80
2023/06/15 02:49:58;;;;;;;33.38;22.50;;;;;;;-142.57;100.00;115900.28;4977079;28;20129;-78
2023/06/15 02:52:30;;;;;;;35.72;21.80;;;;;;;-142.57;100.00;115900.28;4977527;28;20062;-81
2023/06/15 02:54:59;;;;;;;31.08;20.67;;;;;;;-142.57;100.00;115900.28;4977721;28;20034;-77
2023/06/15 02:57:25;;;;;;;33.10;21.63;;;;;;;-142.57;100.00;115900.28;4975293;28;20046;-78
2023/06/15 03:00:17;;;;;;;29.02;20.45;;;;;;;-142.57;100.00;115900.28;4977624;28;20046;-78
2023/06/15 03:02:52;;;;;;;28.13;19.52;;;;;;;-142.57;100.00;115900.28;4961182;28;20077;-78
2023/06/15 03:05:18;;;;;;;26.27;18.73;;;;;;;-142.57;100.00;115900.28;4977071;28;20038;-79
2023/06/15 03:07:51;;;;;;;26.80;19.50;;;;;;;-142.57;100.00;115900.28;4976464;28;20476;-79
2023/06/15 03:10:31;;;;;;;26.70;17.87;;;;;;;-142.57;100.00;115900.28;4975360;28;20042;-81
2023/06/15 03:12:57;;;;;;;27.50;17.65;;;;;;;-142.57;100.00;115900.28;4976555;28;20624;-78
2023/06/15 03:15:25;;;;;;;37.30;17.50;;;;;;;-142.57;100.00;115900.28;4976996;28;20054;-78
2023/06/15 03:17:51;;;;;;;25.42;17.30;;;;;;;-142.57;100.00;115900.28;4978058;28;20107;-77
2023/06/15 03:20:21;;;;;;;30.08;17.80;;;;;;;-142.57;100.00;115900.28;4976494;28;20038;-83
2023/06/15 03:22:48;;;;;;;28.02;17.65;;;;;;;-142.57;100.00;115900.28;4976727;28;20026;-78
2023/06/15 03:25:14;;;;;;;26.58;16.60;;;;;;;-142.57;100.00;115900.28;4976682;28;20375;-79
2023/06/15 03:27:40;;;;;;;24.33;16.55;;;;;;;-142.57;100.00;115900.28;4993811;28;20128;-79
2023/06/15 03:30:10;;;;;;;26.02;16.35;;;;;;;-142.57;100.00;115900.28;4975955;28;20499;-79
2023/06/15 03:32:37;;;;;;;25.52;16.15;;;;;;;-142.57;100.00;115900.28;4976463;28;20038;-78
2023/06/15 03:35:04;;;;;;;24.45;16.70;;;;;;;-142.57;100.00;115900.28;4976407;28;20034;-82
2023/06/15 03:37:30;;;;;;;24.17;16.08;;;;;;;-142.57;100.00;115900.28;4976142;28;20089;-80
2023/06/15 03:39:57;;;;;;;26.83;15.52;;;;;;;-142.57;100.00;115900.28;4975904;28;20053;-80
2023/06/15 03:42:23;;;;;;;24.55;16.00;;;;;;;-142.57;100.00;115900.28;4976420;28;20030;-80
2023/06/15 03:44:48;;;;;;;22.23;15.80;;;;;;;-142.57;100.00;115900.28;4976395;28;20406;-79
2023/06/15 03:47:14;;;;;;;31.02;16.17;;;;;;;-142.57;100.00;115900.28;4993324;28;20500;-79
2023/06/15 03:49:39;;;;;;;26.55;16.25;;;;;;;-142.57;100.00;115900.28;4975448;28;20132;-79
2023/06/15 03:52:05;;;;;;;26.67;15.95;;;;;;;-142.57;100.00;115900.28;4976219;28;20041;-83
2023/06/15 03:54:32;;;;;;;21.63;15.43;;;;;;;-142.57;100.00;115900.28;4976220;28;20384;-78
2023/06/15 03:56:58;;;;;;;23.33;13.82;;;;;;;-142.57;100.00;115900.28;4976101;28;20049;-79
2023/06/15 03:59:24;;;;;;;24.98;13.77;;;;;;;-142.57;100.00;115900.28;4976029;28;20446;-83
2023/06/15 04:01:49;;;;;;;24.13;13.52;;;;;;;-142.57;100.00;115900.28;4949419;28;20053;-80
2023/06/15 04:04:15;;;;;;;26.20;12.43;;;;;;;-142.57;100.00;115900.28;4993456;28;20046;-81
2023/06/15 04:06:46;;;;;;;25.92;12.88;;;;;;;-142.57;100.00;115900.28;4975759;28;20026;-81
2023/06/15 04:09:17;;;;;;;22.33;12.38;;;;;;;-142.57;100.00;115900.28;4975874;28;20122;-80
2023/06/15 04:11:42;;;;;;;24.50;12.13;;;;;;;-142.57;100.00;115900.28;4975682;28;20045;-79
2023/06/15 04:14:08;;;;;;;18.92;11.93;;;;;;;-142.57;100.00;115900.28;4976850;28;20034;-78
2023/06/15 04:16:36;;;;;;;20.17;12.45;;;;;;;-142.57;100.00;115900.28;4960789;28;20065;-85
2023/06/15 04:19:02;;;;;;;17.08;11.75;;;;;;;-142.57;100.00;115900.28;4959918;28;20046;-82
2023/06/15 04:21:28;;;;;;;20.58;10.65;;;;;;;-142.57;100.00;115900.28;4977025;28;20026;-84
2023/06/15 04:23:55;;;;;;;21.63;11.48;;;;;;;-142.57;100.00;115900.28;4975926;28;20034;-79
2023/06/15 04:26:21;;;;;;;17.17;11.13;;;;;;;-142.57;100.00;115900.28;4977312;28;20069;-82
2023/06/15 04:28:49;;;;;;;17.60;11.48;;;;;;;-142.57;100.00;115900.28;4976647;28;20080;-87
2023/06/15 04:31:20;;;;;;;19.98;11.40;;;;;;;-142.57;100.00;115900.28;4975525;28;20125;-82
2023/06/15 04:33:46;;;;;;;19.75;10.82;;;;;;;-142.57;100.00;115900.28;4975966;28;20423;-83
2023/06/15 04:36:13;;;;;;;20.23;9.70;;;;;;;-142.57;100.00;115900.28;4976320;28;20030;-83
2023/06/15 04:38:46;;;;;;;19.90;10.10;;;;;;;-142.57;100.00;115900.28;4977360;28;20041;-88
2023/06/15 04:41:16;;;;;;;16.58;10.25;;;;;;;-142.57;100.00;115900.28;4981193;28;20053;-86
2023/06/15 04:43:42;;;;;;;19.75;9.50;;;;;;;-142.57;100.00;115900.28;4965432;28;20116;-86
2023/06/15 04:46:09;;;;;;;18.73;10.30;;;;;;;-142.57;100.00;115900.28;4981267;28;20049;-88
2023/06/15 04:48:35;;;;;;;15.13;9.43;;;;;;;-142.57;100.00;115900.28;4981972;28;20179;-86
2023/06/15 04:51:00;;;;;;;19.90;10.30;;;;;;;-142.57;100.00;115900.28;4997564;28;20049;-87
2023/06/15 04:53:26;;;;;;;18.48;9.60;;;;;;;-142.57;100.00;115900.28;4985127;28;20031;-90
2023/06/15 04:55:51;;;;;;;18.55;9.85;;;;;;;-142.57;100.00;115900.28;4961739;28;20042;-87
2023/06/15 04:58:17;;;;;;;16.10;9.27;;;;;;;-142.57;100.00;115900.28;4961271;28;20539;-89
2023/06/15 05:00:44;;;;;;;22.00;8.75;;;;;;;-142.57;100.00;115900.28;4961443;28;20058;-86
2023/06/15 05:03:11;;;;;;;26.25;10.27;;;;;;;-142.57;100.00;115900.28;4958031;28;20411;-86
2023/06/15 05:05:38;;;;;;;19.25;9.40;;;;;;;-142.57;100.00;115900.28;4983559;28;20035;-87
2023/06/15 05:08:04;;;;;;;17.83;9.43;;;;;;;-142.57;100.00;115900.28;4983993;28;20095;-85
2023/06/15 05:10:30;;;;;;;16.83;10.43;;;;;;;-142.57;100.00;115900.28;4966858;28;20027;-86
2023/06/15 05:12:58;;;;;;;20.92;10.80;;;;;;;-142.57;100.00;115900.28;4977903;28;20450;-85
2023/06/15 05:15:24;;;;;;;16.70;9.77;;;;;;;-142.57;100.00;115900.28;4969772;28;20038;-87
2023/06/15 05:17:50;;;;;;;18.27;11.10;;;;;;;-142.57;100.00;115900.28;4989357;28;20039;-88
2023/06/15 05:20:16;;;;;;;22.25;11.90;;;;;;;-142.57;100.00;115900.28;4994604;28;20479;-85
2023/06/15 05:22:42;;;;;;;20.02;12.45;;;;;;;-142.57;100.00;115900.28;4997572;28;20030;-88
2023/06/15 05:25:08;;;;;;;18.30;11.20;;;;;;;-142.57;100.00;115900.28;5007144;28;20049;-87
2023/06/15 05:27:37;;;;;;;17.80;11.55;;;;;;;-142.57;100.00;115900.28;4987373;28;20048;-89
2023/06/15 05:30:07;;;;;;;15.20;10.45;;;;;;;-142.57;100.00;115900.28;4971834;28;20145;-88
2023/06/15 05:32:37;;;;;;;23.08;10.68;;;;;;;-142.57;100.00;115900.28;4984333;28;20093;-88
2023/06/15 05:35:18;;;;;;;18.35;11.85;;;;;;;-142.57;100.00;115900.28;4969282;28;20164;-87
2023/06/15 05:37:48;;;;;;;21.77;11.98;;;;;;;-142.57;100.00;115900.28;4936933;28;20110;-87
2023/06/15 05:40:14;;;;;;;22.30;11.85;;;;;;;-142.57;100.00;115900.28;4952265;28;20034;-91
2023/06/15 05:45:25;;;;;;;24.90;12.40;;;;;;;-142.57;100.00;115900.28;4697357;23;20025;-90
2023/06/15 05:48:05;;;;;;;28.10;13.57;;;;;;;-142.57;100.00;115900.28;5033201;28;20382;-89
2023/06/15 05:50:59;;;;;;;22.77;13.60;;;;;;;-142.57;100.00;115900.28;5034520;28;20036;-89
2023/06/15 05:56:15;;;;;;;21.17;13.45;;;;;;;-142.57;100.00;115900.28;4160409;26;20038;-83
2023/06/15 05:58:41;;;;;;;26.55;14.70;;;;;;;-142.57;100.00;115900.28;5007751;28;20041;-82
2023/06/15 06:01:09;;;;;;;27.95;14.43;;;;;;;-142.57;100.00;115900.28;5023565;28;20046;-84
2023/06/15 06:03:39;;;;;;;25.13;13.90;;;;;;;-142.57;100.00;115900.28;5025810;28;20041;-82
2023/06/15 06:06:05;;;;;;;23.67;14.93;;;;;;;-142.57;100.00;115900.28;5004157;28;20550;-82
2023/06/15 06:08:34;;;;;;;24.85;15.40;;;;;;;-142.57;100.00;115900.28;5005669;28;20096;-85
2023/06/15 06:13:50;;;;;;;20.67;13.98;;;;;;;-142.57;100.00;115900.28;4970709;28;20054;-83
2023/06/15 06:16:15;;;;;;;26.50;14.63;;;;;;;-142.57;100.00;115900.28;4977908;28;20034;-82
2023/06/15 06:18:41;;;;;;;25.73;14.75;;;;;;;-142.57;100.00;115900.28;4979929;28;20038;-83
2023/06/15 06:21:06;;;;;;;27.65;15.82;;;;;;;-142.57;100.00;115900.28;4958975;28;20027;-86
2023/06/15 06:23:34;;;;;;;30.55;15.98;;;;;;;-142.57;100.00;115900.28;4969179;28;20035;-85
2023/06/15 06:26:00;;;;;;;23.88;16.02;;;;;;;-142.57;100.00;115900.28;4949511;29;20032;-85
2023/06/15 06:28:26;;;;;;;30.00;17.35;;;;;;;-142.57;100.00;115900.28;4971263;28;20038;-84
2023/06/15 06:30:58;;;;;;;30.60;18.58;;;;;;;-142.57;100.00;115900.28;4964790;28;20034;-82
2023/06/15 06:33:25;;;;;;;26.87;17.30;;;;;;;-142.57;100.00;115900.28;4983539;28;20483;-83
2023/06/15 06:35:52;;;;;;;28.92;18.83;;;;;;;-142.57;100.00;115900.28;4966620;28;20293;-83
2023/06/15 06:38:18;;;;;;;28.70;18.52;;;;;;;-142.57;100.00;115900.28;4984243;28;20027;-85
2023/06/15 06:40:44;;;;;;;26.85;17.95;;;;;;;-142.57;100.00;115900.28;4964882;28;20039;-83
2023/06/15 06:43:10;;;;;;;27.60;17.55;;;;;;;-142.57;100.00;115900.28;4966381;28;20034;-82
2023/06/15 06:45:45;;;;;;;23.48;16.20;;;;;;;-142.57;100.00;115900.28;4985087;28;20102;-91
2023/06/15 06:48:50;;;;;;;27.70;18.83;;;;;;;-142.57;100.00;115900.28;4997205;28;20049;-91
2023/06/15 06:51:18;;;;;;;29.08;18.67;;;;;;;-142.57;100.00;115900.28;4947827;28;20496;-84
2023/06/15 06:53:44;;;;;;;28.10;18.40;;;;;;;-142.57;100.00;115900.28;4986643;28;20038;-88
2023/06/15 06:56:09;;;;;;;23.98;17.67;;;;;;;-142.57;100.00;115900.28;4983463;28;20053;-85
2023/06/15 06:58:35;;;;;;;28.45;18.02;;;;;;;-142.57;100.00;115900.28;4984599;28;20039;-87
2023/06/15 07:01:00;;;;;;;25.48;17.85;;;;;;;-142.57;100.00;115900.28;4984767;28;20049;-88
2023/06/15 07:03:26;;;;;;;22.25;14.88;;;;;;;-142.57;100.00;115900.28;4986034;28;20066;-86
2023/06/15 07:05:55;;;;;;;24.35;16.40;;;;;;;-142.57;100.00;115900.28;4962718;28;20030;-86
2023/06/15 07:08:21;;;;;;;20.55;15.70;;;;;;;-142.57;100.00;115900.28;4982593;28;20090;-86
2023/06/15 07:10:49;;;;;;;25.33;17.05;;;;;;;-142.57;100.00;115900.28;4974980;28;20097;-85
2023/06/15 07:13:15;;;;;;;26.30;16.63;;;;;;;-142.57;100.00;115900.28;4980390;28;20027;-88
2023/06/15 07:15:40;;;;;;;24.88;16.35;;;;;;;-142.57;100.00;115900.28;4978602;28;20094;-86
2023/06/15 07:18:06;;;;;;;22.38;16.10;;;;;;;-142.57;100.00;115900.28;4984039;28;20031;-87
2023/06/15 07:20:31;;;;;;;22.33;14.90;;;;;;;-142.57;100.00;115900.28;4980466;28;20042;-86
2023/06/15 07:22:57;;;;;;;24.90;15.60;;;;;;;-142.57;100.00;115900.28;4951423;29;20047;-87
2023/06/15 07:25:22;;;;;;;20.83;13.68;;;;;;;-142.57;100.00;115900.28;4975697;28;20053;-86
2023/06/15 07:27:51;;;;;;;21.23;13.63;;;;;;;-142.57;100.00;115900.28;4960407;28;20026;-88
2023/06/15 07:30:16;;;;;;;17.98;13.05;;;;;;;-142.57;100.00;115900.28;4978692;28;20097;-85
2023/06/15 07:32:42;;;;;;;18.85;11.02;;;;;;;-142.57;100.00;115900.28;4944790;29;20039;-85
2023/06/15 07:35:09;;;;;;;14.10;10.93;;;;;;;-142.57;100.00;115900.28;4945681;29;20090;-87
2023/06/15 07:37:35;;;;;;;16.55;9.15;;;;;;;-142.57;100.00;115900.28;4934118;29;20031;-84
2023/06/15 07:40:00;;;;;;;21.38;11.02;;;;;;;-142.57;100.00;115900.28;4964152;28;20126;-86
2023/06/15 07:42:26;;;;;;;17.98;10.32;;;;;;;-142.57;100.00;115900.28;4977999;28;20039;-86
2023/06/15 07:44:52;;;;;;;21.38;11.43;;;;;;;-142.57;100.00;115900.28;4962816;28;21095;-86
2023/06/15 07:47:18;;;;;;;15.18;8.70;;;;;;;-142.57;100.00;115900.28;4954058;29;20513;-86
2023/06/15 07:49:44;;;;;;;18.45;8.45;;;;;;;-142.57;100.00;115900.28;4949402;29;20047;-85
2023/06/15 07:52:09;;;;;;;9.85;7.78;;;;;;;-142.57;100.00;115900.28;4963391;28;20038;-84
2023/06/15 07:54:35;;;;;;;9.85;6.43;;;;;;;-142.57;100.00;115900.28;4961729;28;20032;-87
2023/06/15 07:57:00;;;;;;;12.32;7.43;;;;;;;-142.57;100.00;115900.28;4958842;28;20045;-86
2023/06/15 07:59:26;;;;;;;10.55;7.72;;;;;;;-142.57;99.09;115900.28;4940899;29;20420;-84
2023/06/15 08:01:51;;;;;;;13.10;8.73;;;;;;;-142.57;100.00;115900.28;4952420;28;20479;-85
2023/06/15 08:04:17;;;;;;;16.75;7.70;;;;;;;-142.57;95.38;115900.28;4957302;28;20027;-85
2023/06/15 08:06:43;;;;;;;8.98;6.22;;;;;;;-142.57;86.67;115900.28;4967433;28;20133;-85
2023/06/15 08:09:08;;;;;;;11.02;7.43;;;;;;;-142.57;79.41;115900.28;4974984;28;20474;-82
2023/06/15 08:11:34;;;;;;;14.63;6.97;;;;;;;-142.57;75.30;115900.28;4975244;28;20408;-85
2023/06/15 08:13:59;;;;;;;13.85;6.40;;;;;;;-142.57;69.82;115900.28;4975951;28;20077;-86
2023/06/15 08:16:25;;;;;;;11.45;6.18;;;;;;;-142.57;64.35;115900.28;4940166;29;20117;-83
2023/06/15 08:18:50;;;;;;;10.68;5.57;;;;;;;-142.57;62.60;115900.28;4959759;28;20410;-84
2023/06/15 08:21:17;;;;;;;16.60;7.53;;;;;;;-142.57;59.24;115900.28;4957697;29;20027;-84
2023/06/15 08:23:42;;;;;;;16.00;8.30;;;;;;;-142.57;60.99;115900.28;4941348;29;20040;-84
2023/06/15 08:26:08;;;;;;;11.50;7.55;;;;;;;-142.57;54.72;115900.28;4962308;28;20066;-86
2023/06/15 08:28:34;;;;;;;14.50;8.48;;;;;;;-142.57;54.42;115900.28;4939241;29;20124;-85
2023/06/15 08:30:59;;;;;;;16.13;7.32;;;;;;;-142.57;57.11;115900.28;4957430;28;20117;-85
2023/06/15 08:33:25;;;;;;;13.38;7.90;;;;;;;-142.57;57.01;115900.28;4973988;28;20066;-85
2023/06/15 08:35:50;;;;;;;12.15;8.90;;;;;;;-142.57;55.07;115900.28;4955852;28;20038;-84
2023/06/15 08:38:16;;;;;;;11.82;8.75;;;;;;;-142.57;55.70;115900.28;4956980;28;20046;-86
2023/06/15 08:40:41;;;;;;;13.85;7.95;;;;;;;-142.57;52.88;115900.28;4958707;28;20030;-87
2023/06/15 08:43:08;;;;;;;10.15;7.20;;;;;;;-142.57;48.33;115900.28;4958532;28;20069;-84
2023/06/15 08:45:41;;;;;;;16.02;6.22;;;;;;;-142.57;52.01;115900.28;4957703;28;20077;-87
2023/06/15 08:48:09;;;;;;;13.73;5.68;;;;;;;-142.57;50.07;115900.28;4975013;28;20042;-87
2023/06/15 08:50:38;;;;;;;12.30;5.55;;;;;;;-142.57;51.42;115900.28;4957854;28;20035;-86
2023/06/15 08:53:07;;;;;;;11.07;5.70;;;;;;;-142.57;50.45;115900.28;4974515;28;20039;-86
2023/06/15 08:55:33;;;;;;;10.90;6.18;;;;;;;-142.57;53.48;115900.28;4957592;28;20039;-88
2023/06/15 08:58:02;;;;;;;12.25;8.20;;;;;;;-142.57;55.63;115900.28;4974042;28;20081;-84
2023/06/15 09:00:28;;;;;;;10.05;7.00;;;;;;;-142.57;51.01;115900.28;4974470;28;20031;-84
2023/06/15 09:02:57;;;;;;;9.68;5.80;;;;;;;-142.57;49.72;115900.28;4966342;28;20039;-86
2023/06/15 09:05:24;;;;;;;9.35;5.65;;;;;;;-142.57;51.47;115900.28;4974448;28;20395;-84
2023/06/15 09:07:51;;;;;;;13.10;6.47;;;;;;;-142.57;52.06;115900.28;4971553;28;20439;-86
2023/06/15 09:10:18;;;;;;;14.48;6.40;;;;;;;-142.57;48.89;115900.28;4966970;28;20361;-84
2023/06/15 09:12:46;;;;;;;10.02;6.18;;;;;;;-142.57;50.12;115900.28;4972948;28;20081;-84
2023/06/15 09:15:21;;;;;;;11.30;6.95;;;;;;;-142.57;50.35;115900.28;4970466;28;20039;-84
2023/06/15 09:17:50;;;;;;;35.33;20.45;;;;;;;-142.57;50.88;115900.28;4975743;28;20138;-84
2023/06/15 09:20:21;;;;;;;11.38;6.13;;;;;;;-142.57;46.78;115900.28;4962882;28;20042;-84
2023/06/15 09:22:47;;;;;;;9.57;6.22;;;;;;;-142.57;49.50;115900.28;4982058;28;20035;-84
2023/06/15 09:25:12;;;;;;;13.23;6.20;;;;;;;-142.57;49.55;115900.28;4983923;28;20045;-84
2023/06/15 09:27:38;;;;;;;10.82;6.38;;;;;;;-142.57;49.30;115900.28;4984163;28;20035;-86
2023/06/15 09:30:08;;;;;;;10.70;6.40;;;;;;;-142.57;49.95;115900.28;4982450;28;20077;-85
2023/06/15 09:32:33;;;;;;;8.88;6.82;;;;;;;-142.57;51.64;115900.28;4977971;28;20086;-83
2023/06/15 09:35:00;;;;;;;9.38;6.90;;;;;;;-142.57;51.85;115900.28;4957199;28;20444;-85
2023/06/15 09:37:27;;;;;;;9.02;6.07;;;;;;;-142.57;50.72;115900.28;4963061;28;20107;-85
2023/06/15 09:39:53;;;;;;;13.77;6.43;;;;;;;-142.57;51.57;115900.28;4965512;28;20071;-86
2023/06/15 09:42:26;;;;;;;9.27;5.85;;;;;;;-142.57;50.79;115900.28;4966262;28;20041;-86
2023/06/15 09:44:54;;;;;;;16.65;4.35;;;;;;;-142.57;47.40;115900.28;4969455;28;20135;-83
2023/06/15 09:47:20;;;;;;;8.55;4.10;;;;;;;-142.57;47.92;115900.28;4985231;28;20106;-81
2023/06/15 09:49:48;;;;;;;8.00;4.30;;;;;;;-142.57;48.43;115900.28;4983394;28;20062;-82
2023/06/15 09:52:13;;;;;;;14.90;5.25;;;;;;;-142.57;48.02;115900.28;4984703;28;20380;-81
2023/06/15 09:54:39;;;;;;;6.10;4.50;;;;;;;-142.57;48.83;115900.28;4963645;28;20027;-84
2023/06/15 09:57:06;;;;;;;6.03;4.90;;;;;;;-142.57;49.32;115900.28;4970799;28;20035;-81
2023/06/15 09:59:32;;;;;;;9.63;5.05;;;;;;;-142.57;52.56;115900.28;4962679;28;20111;-82
2023/06/15 10:02:00;;;;;;;7.65;4.38;;;;;;;-142.57;53.01;115900.28;4980550;28;20035;-79
2023/06/15 10:04:32;;;;;;;9.90;5.82;;;;;;;-142.57;55.68;115900.28;4967434;28;20050;-81
2023/06/15 10:07:03;;;;;;;12.85;5.05;;;;;;;-142.57;56.37;115900.28;4958919;28;20102;-81
2023/06/15 10:09:35;;;;;;;7.35;4.57;;;;;;;-142.57;54.29;115900.28;4971352;28;20439;-84
2023/06/15 10:12:13;;;;;;;6.80;4.13;;;;;;;-142.57;52.27;115900.28;4970002;28;20045;-84
2023/06/15 10:14:47;;;;;;;6.45;3.90;;;;;;;-142.57;49.37;115900.28;4970838;28;20500;-84
2023/06/15 10:17:16;;;;;;;7.90;4.03;;;;;;;-142.57;49.14;115900.28;4981892;28;20126;-82
2023/06/15 10:19:46;;;;;;;8.10;3.80;;;;;;;-142.57;47.48;115900.28;4961024;28;20428;-84
2023/06/15 10:22:17;;;;;;;6.63;4.05;;;;;;;-142.57;48.19;115900.28;4961690;28;20032;-85
2023/06/15 10:24:45;;;;;;;6.18;3.47;;;;;;;-142.57;47.07;115900.28;4956705;28;20062;-84
2023/06/15 10:27:11;;;;;;;6.43;2.85;;;;;;;-142.57;47.36;115900.28;4960022;28;20031;-83
2023/06/15 10:29:46;;;;;;;7.07;3.22;;;;;;;-142.57;46.26;115900.28;4945024;28;20047;-83
2023/06/15 10:32:20;;;;;;;10.80;3.45;;;;;;;-142.57;47.26;115900.28;4967088;28;20393;-82
2023/06/15 10:35:04;;;;;;;10.25;3.55;;;;;;;-142.57;47.12;115900.28;4966765;28;20027;-85
2023/06/15 10:37:55;;;;;;;10.45;3.45;;;;;;;-142.57;47.27;115900.28;4938601;28;20038;-84
2023/06/15 10:40:29;;;;;;;4.78;2.65;;;;;;;-142.57;46.21;115900.28;4956947;28;20062;-80
2023/06/15 10:42:57;;;;;;;14.20;3.45;;;;;;;-142.57;44.33;115900.28;4956737;28;20090;-89
2023/06/15 10:45:29;;;;;;;5.00;3.00;;;;;;;-142.57;45.20;115900.28;4956403;28;20031;-83
2023/06/15 10:47:58;;;;;;;6.47;2.83;;;;;;;-142.57;42.58;115900.28;4965440;28;20097;-85
2023/06/15 10:50:25;;;;;;;5.70;2.88;;;;;;;-142.57;43.71;115900.28;4964539;28;20026;-88
2023/06/15 10:52:51;;;;;;;6.35;3.10;;;;;;;-142.57;43.35;115900.28;4972775;28;20066;-87
2023/06/15 10:55:22;;;;;;;7.22;3.15;;;;;;;-142.57;44.90;115900.28;4966200;28;20086;-85
2023/06/15 10:57:48;;;;;;;7.22;2.60;;;;;;;-142.57;44.27;115900.28;4970002;28;20118;-85
2023/06/15 11:00:24;;;;;;;7.32;2.90;;;;;;;-142.57;43.31;115900.28;4974733;28;20089;-84
2023/06/15 11:02:54;;;;;;;5.22;3.25;;;;;;;-142.57;43.48;115900.28;4965205;28;20031;-86